TEMPO/BECMG im TAF

  • TEMPO/BECMG im TAF

    Hallo,
    keine direkte Examfrage, aber eine, die mich trotzdem interessiert ;)
    Es geht um ein TAF, genauer gesagt, die Gruppen TEMPO und BECMG.

    Bsp:

    EDAH
    010800Z 0109/0118 10012KT 9999 FEW025 TEMPO 0110/0118 10015G25KT

    Man landet um 15 Uhr UTC...wie ist das Wetter ?

    Die TEMPO Gruppe sagt ja nur aus, dass sich hier zwischen 10 und 18 Uhr das Wetter zeitweise ändern kann.

    Wenn ich nun auf meine Landezeit schaue, bedeutet das, dass ich also zwischen 10 und 18 Uhr keinen Wind von 100/12 mehr habe, sondern 100/15G25kt ? Und das in diesen 8h durchgehend ?

    Zu BECMG:

    EDDM 010500Z 0106/0212 06010KT 8000 BKN008 TEMPO 0109/0115 2000 -SN ; BECMG 0115/0117 29010KT 4000 -SN

    Nur um es richtig verstanden zu haben:
    - die Sichtweite zwischen 9 und 15 Uhr UTC verringert sich auf 2000ft, leichter Schnee (also, wenn Landebedingungen um 14 Uhr UTC gefragt ist --> 2000m, leichter Schnee)
    - zwischen 15 und 17 Uhr tritt ein: Wind aus 290 mit 10kts, Sichtweite 4000m, leichter Schnee und diese Bedingungen gilten dann DAUERHAFT bis um 12 Uhr UTC am 2. ?

    Danke schonmal :)

    Gruß,
    Sebastian

    Post was edited 2 times, last by SebastianL ().

  • RE: TEMPO/BECMG im TAF

    Original von SebastianL

    EDAH
    010800Z 0109/0118 10012KT 9999 FEW025 TEMPO 0110/0118 10015G25KT

    Man landet um 15 Uhr UTC...wie ist das Wetter ?

    Die TEMPO Gruppe sagt ja nur aus, dass sich hier zwischen 10 und 18 Uhr das Wetter zeitweise ändern kann.

    Wenn ich nun auf meine Landezeit schaue, bedeutet das, dass ich also zwischen 10 und 18 Uhr keinen Wind von 100/12 mehr habe, sondern 100/15G25kt ? Und das in diesen 8h durchgehend ?



    Die Tempo-Gruppe sagt aus, dass der Grundzustand sich nicht verändert, jedoch innerhalb des angegebenen Zeitraumes für weniger als 1h vorherrscht. Bedeutet im Umkehrschluss, dass Du zwischen 10 und 18UTC Wind 100/12 haben wirst, es aber einen kleinen Zeitraum mit gusts geben wird.

    Tempo_bis 1h
    bcmg_Änderung des Grundzustandes bis neue Änderung eintritt